Terminal Aerodrome Forecast
Issued by NWS

Home | Current Version | Previous Version | Text Only | Print | Product List | Glossary On
Versions: 1 2 3 4 5 6 7 8 9 10 11 12 13 14 15 16 17
000
FTUS43 KPAH 301720
TAFOWB
TAF
KOWB 301720Z 3018/0118 17012G20KT 3SM -SHRA BR SCT015 OVC030
      TEMPO 3018/3020 1SM TSRA BR OVC015CB
     FM302300 17015G25KT P6SM -SHRA VCTS BKN025CB
     FM010500 20015G25KT 4SM -SHRA SCT010 OVC020
     FM010900 21010G15KT P6SM SCT025 BKN100
     FM011400 21015G25KT P6SM BKN025=

USA.gov is the U.S. government's official web portal to all federal, state and local government web resources and services.